Anderson, Texas
Current Conditions -  °F | °C
As of 11:53 AM on Thursday 18 Dec 2014 (Local Time) from KCLL Reporting Station
Overcast Overcast  
Wind Chill: 59°   Ceiling: 900
Heat Index: 59°   Visibility: 7mi
Dew Point: 53°   Wind: 3mph
Humidity: 81%   Direction: 310°NW
Pressure: 30.12"   Gusts: NA
Location:  30.49°N, 95.99°W
Report Text: KCLL 181753Z 31003KT 7SM OVC009 15/12 A3012 RMK AO2 SLP198 T01500117 10156 20100 58003
Loading
Personal Weather Stations






























Interactive Weather Map New forecast layout! Learn more

10-Day Weather Forecast

Advertisements
Track Severe Weather on mobile